Time;durP1;ratioP1;P1;durP2;ratioP2;P2;SDS_P1;SDS_P2;PMS_P1;PMS_P2;Temp;Humidity;BMP_temperature;BMP_pressure;BME280_temperature;BME280_humidity;BME280_pressure;Samples;Min_cycle;Max_cycle;Signal;HPM_P1;HPM_P2
2024/04/13 00:00:23;;;;;;;0.10;0.10;;;;;;;18.07;56.28;102757.22;5485641;26;20017;-86
2024/04/13 00:02:49;;;;;;;0.00;0.00;;;;;;;18.04;56.52;102753.72;5481923;26;20505;-85
2024/04/13 00:05:15;;;;;;;0.10;0.10;;;;;;;18.04;56.09;102748.34;5486262;26;20006;-85
2024/04/13 00:07:42;;;;;;;0.10;0.10;;;;;;;18.02;56.22;102744.81;5496246;26;19990;-85
2024/04/13 00:10:08;;;;;;;0.00;0.00;;;;;;;17.98;56.43;102741.31;5503217;26;20401;-85
2024/04/13 00:12:34;;;;;;;0.00;0.00;;;;;;;17.92;57.01;102741.41;5451963;26;20067;-85
2024/04/13 00:15:00;;;;;;;0.10;0.10;;;;;;;17.89;56.63;102739.66;5487506;26;20006;-85
2024/04/13 00:17:26;;;;;;;0.03;0.03;;;;;;;17.88;56.56;102740.59;5479882;26;20004;-85
2024/04/13 00:19:53;;;;;;;0.10;0.10;;;;;;;17.84;56.84;102738.00;5490010;26;19998;-85
2024/04/13 00:22:19;;;;;;;0.00;0.00;;;;;;;17.78;56.83;102737.22;5479337;26;20315;-85
2024/04/13 00:24:46;;;;;;;0.00;0.00;;;;;;;17.75;57.08;102731.91;5488475;26;19994;-85
2024/04/13 00:27:13;;;;;;;0.05;0.05;;;;;;;17.72;56.79;102726.63;5488297;26;20006;-85
2024/04/13 00:29:39;;;;;;;0.73;0.73;;;;;;;17.70;56.61;102732.91;5493539;26;19994;-82
2024/04/13 00:32:06;;;;;;;0.10;0.10;;;;;;;17.58;57.41;102724.22;5514132;25;20002;-84
2024/04/13 00:34:35;;;;;;;0.45;0.45;;;;;;;17.60;57.43;102716.13;5500672;26;20002;-85
2024/04/13 00:37:03;;;;;;;0.10;0.10;;;;;;;17.55;57.27;102723.38;5486446;26;19998;-85
2024/04/13 00:39:30;;;;;;;0.03;0.03;;;;;;;17.50;57.51;102709.19;5490124;26;20442;-85
2024/04/13 00:41:56;;;;;;;0.10;0.10;;;;;;;17.50;57.38;102704.72;5492111;26;19998;-85
2024/04/13 00:44:22;;;;;;;0.10;0.10;;;;;;;17.41;57.64;102703.09;5489199;26;20013;-86
2024/04/13 00:46:49;;;;;;;0.10;0.10;;;;;;;17.42;57.59;102707.53;5480898;26;20022;-85
2024/04/13 00:49:19;;;;;;;0.20;0.20;;;;;;;17.37;57.75;102712.09;5490432;26;19994;-85
2024/04/13 00:51:52;;;;;;;0.05;0.05;;;;;;;17.36;57.49;102707.66;5485643;26;20006;-85
2024/04/13 00:54:20;;;;;;;0.10;0.10;;;;;;;17.27;58.22;102698.00;5486273;26;19998;-85
2024/04/13 00:56:49;;;;;;;0.10;0.10;;;;;;;17.20;58.52;102698.16;5485303;26;20002;-85
2024/04/13 00:59:17;;;;;;;0.00;0.00;;;;;;;17.18;58.22;102691.91;5484314;26;20017;-85
2024/04/13 01:01:46;;;;;;;0.10;0.10;;;;;;;17.17;58.40;102690.16;5498121;26;20441;-86
2024/04/13 01:04:15;;;;;;;0.00;0.00;;;;;;;17.14;58.21;102686.59;5486996;26;20084;-85
2024/04/13 01:06:42;;;;;;;0.10;0.10;;;;;;;17.12;58.51;102685.75;5490708;26;20456;-85
2024/04/13 01:09:08;;;;;;;0.10;0.10;;;;;;;17.09;58.86;102687.63;5483982;26;20405;-85
2024/04/13 01:11:35;;;;;;;0.17;0.17;;;;;;;17.03;58.86;102688.59;5478583;26;20031;-86
2024/04/13 01:14:01;;;;;;;0.08;0.08;;;;;;;17.03;58.51;102682.38;5482144;26;20339;-84
2024/04/13 01:16:29;;;;;;;0.10;0.10;;;;;;;16.96;59.22;102678.94;5484206;26;20394;-85
2024/04/13 01:18:56;;;;;;;0.00;0.00;;;;;;;16.93;59.20;102673.59;5481430;26;20079;-85
2024/04/13 01:21:22;;;;;;;0.15;0.15;;;;;;;16.89;59.15;102664.72;5490869;26;19998;-85
2024/04/13 01:24:05;;;;;;;0.03;0.03;;;;;;;16.91;58.78;102667.34;5486421;26;20449;-86
2024/04/13 01:26:41;;;;;;;0.10;0.10;;;;;;;16.88;58.88;102673.66;5486118;26;20006;-84
2024/04/13 01:29:09;;;;;;;34.13;1.85;;;;;;;16.86;58.89;102674.59;5472022;26;20552;-85
2024/04/13 01:31:37;;;;;;;2.83;0.47;;;;;;;16.78;59.54;102667.56;5484670;26;19998;-85
2024/04/13 01:34:04;;;;;;;0.10;0.10;;;;;;;16.77;59.16;102668.50;5479888;26;19998;-86
2024/04/13 01:36:38;;;;;;;0.38;0.38;;;;;;;16.75;59.62;102662.28;5488166;26;19994;-85
2024/04/13 01:39:13;;;;;;;0.10;0.10;;;;;;;16.72;59.34;102656.94;5486359;26;20437;-85
2024/04/13 01:41:43;;;;;;;0.08;0.08;;;;;;;16.72;59.45;102666.78;5471739;26;19998;-85
2024/04/13 01:44:09;;;;;;;0.00;0.00;;;;;;;16.67;59.56;102666.84;5475104;26;19998;-86
2024/04/13 01:46:39;;;;;;;0.00;0.00;;;;;;;16.61;60.05;102669.63;5490643;26;19986;-84
2024/04/13 01:49:05;;;;;;;0.08;0.08;;;;;;;16.53;60.32;102676.91;5508853;26;19993;-85
2024/04/13 01:51:32;;;;;;;1.13;1.08;;;;;;;16.54;60.02;102679.56;5510813;26;19997;-86
2024/04/13 01:53:58;;;;;;;0.10;0.10;;;;;;;16.53;59.68;102682.28;5488353;26;20009;-85
2024/04/13 01:56:25;;;;;;;0.00;0.00;;;;;;;16.53;60.13;102676.91;5481300;26;20412;-85
2024/04/13 01:58:52;;;;;;;0.08;0.08;;;;;;;16.55;59.58;102672.41;5479148;26;19998;-85
2024/04/13 02:01:18;;;;;;;0.10;0.10;;;;;;;16.50;60.03;102668.03;5486586;26;20002;-85
2024/04/13 02:03:44;;;;;;;0.00;0.00;;;;;;;16.46;59.83;102666.31;5481396;26;20006;-85
2024/04/13 02:06:10;;;;;;;0.00;0.00;;;;;;;16.46;59.90;102666.31;5487182;26;20454;-85
2024/04/13 02:08:37;;;;;;;0.00;0.00;;;;;;;16.45;59.91;102669.88;5488077;26;19994;-86
2024/04/13 02:11:06;;;;;;;0.10;0.10;;;;;;;16.44;59.92;102662.78;5473457;26;20441;-84
2024/04/13 02:13:33;;;;;;;2.25;1.38;;;;;;;16.42;59.97;102675.28;5488619;26;19998;-85
2024/04/13 02:16:00;;;;;;;0.10;0.10;;;;;;;16.38;60.36;102676.25;5486917;26;20002;-86
2024/04/13 02:18:27;;;;;;;0.10;0.10;;;;;;;16.38;60.21;102672.69;5484850;26;20010;-85
2024/04/13 02:20:55;;;;;;;0.00;0.00;;;;;;;16.36;59.94;102664.66;5479670;26;20007;-85
2024/04/13 02:23:22;;;;;;;0.03;0.03;;;;;;;16.31;60.42;102666.53;5482266;26;20026;-85
2024/04/13 02:25:50;;;;;;;0.03;0.03;;;;;;;16.30;60.43;102681.72;5485158;26;20071;-86
2024/04/13 02:28:16;;;;;;;0.08;0.08;;;;;;;16.28;60.33;102683.50;5486195;26;20026;-85
2024/04/13 02:30:43;;;;;;;0.03;0.03;;;;;;;16.27;59.94;102692.44;5487427;26;19999;-85
2024/04/13 02:33:09;;;;;;;0.00;0.00;;;;;;;16.27;60.02;102686.22;5487214;26;20006;-86
2024/04/13 02:35:36;;;;;;;0.00;0.00;;;;;;;16.20;60.80;102692.53;5485200;26;20418;-86
2024/04/13 02:38:03;;;;;;;0.08;0.08;;;;;;;16.19;60.53;102689.00;5481335;26;19990;-87
2024/04/13 02:40:30;;;;;;;0.00;0.00;;;;;;;16.18;60.14;102682.75;5472961;26;20442;-83
2024/04/13 02:43:00;;;;;;;0.00;0.00;;;;;;;16.16;60.38;102692.59;5476678;26;20514;-86
2024/04/13 02:45:27;;;;;;;0.00;0.00;;;;;;;16.09;60.83;102682.03;5484749;26;20040;-85
2024/04/13 02:47:53;;;;;;;0.20;0.20;;;;;;;16.04;61.25;102678.50;5487564;26;19990;-84
2024/04/13 02:50:19;;;;;;;0.63;0.63;;;;;;;16.05;60.99;102685.63;5486586;26;20009;-84
2024/04/13 02:52:47;;;;;;;0.00;0.00;;;;;;;16.01;60.70;102680.34;5484262;26;20005;-85
2024/04/13 02:55:14;;;;;;;0.30;0.30;;;;;;;15.99;60.86;102670.56;5476272;26;19999;-85
2024/04/13 02:57:43;;;;;;;0.10;0.10;;;;;;;15.97;61.18;102667.00;5486603;26;20006;-85
2024/04/13 03:00:11;;;;;;;0.10;0.10;;;;;;;15.95;61.23;102671.50;5487310;26;20328;-84
2024/04/13 03:02:37;;;;;;;0.00;0.00;;;;;;;15.93;60.57;102676.88;5489843;26;20002;-85
2024/04/13 03:05:04;;;;;;;0.00;0.00;;;;;;;15.89;60.64;102674.25;5498572;26;19999;-85
2024/04/13 03:07:33;;;;;;;0.15;0.15;;;;;;;15.87;60.85;102676.06;5504456;26;20002;-84
2024/04/13 03:09:59;;;;;;;0.82;0.82;;;;;;;15.84;61.15;102685.00;5499089;26;19994;-85
2024/04/13 03:12:25;;;;;;;0.00;0.00;;;;;;;15.83;60.90;102676.09;5502089;26;20005;-85
2024/04/13 03:14:51;;;;;;;0.10;0.10;;;;;;;15.81;61.58;102683.22;5483863;26;19995;-85
2024/04/13 03:17:17;;;;;;;0.10;0.10;;;;;;;15.79;61.27;102679.69;5491340;26;20022;-85
2024/04/13 03:19:43;;;;;;;0.10;0.10;;;;;;;15.76;61.08;102674.38;5475563;26;20000;-85
2024/04/13 03:22:10;;;;;;;0.40;0.40;;;;;;;15.73;61.47;102671.75;5487499;26;19995;-85
2024/04/13 03:24:36;;;;;;;0.00;0.00;;;;;;;15.72;61.61;102671.78;5476072;26;20009;-85
2024/04/13 03:27:03;;;;;;;0.00;0.00;;;;;;;15.69;61.66;102675.38;5487867;26;20034;-85
2024/04/13 03:29:29;;;;;;;0.10;0.10;;;;;;;15.69;61.52;102672.69;5479256;26;20107;-84
2024/04/13 03:31:56;;;;;;;0.00;0.00;;;;;;;15.67;62.11;102669.16;5489534;26;20004;-86
2024/04/13 03:34:23;;;;;;;0.10;0.10;;;;;;;15.65;61.83;102661.16;5488566;26;20347;-85
2024/04/13 03:36:49;;;;;;;0.10;0.10;;;;;;;15.64;62.17;102663.84;5490019;26;20469;-86
2024/04/13 03:39:16;;;;;;;0.00;0.00;;;;;;;15.63;61.99;102667.44;5486316;26;19998;-86
2024/04/13 03:41:42;;;;;;;0.10;0.10;;;;;;;15.59;62.59;102661.22;5477445;26;20084;-86
2024/04/13 03:44:09;;;;;;;0.00;0.00;;;;;;;15.59;62.37;102660.31;5486667;26;19994;-85
2024/04/13 03:46:35;;;;;;;0.00;0.00;;;;;;;15.57;62.42;102656.81;5490067;26;19994;-86
2024/04/13 03:49:01;;;;;;;0.00;0.00;;;;;;;15.58;61.59;102661.25;5495896;26;20456;-85
2024/04/13 03:51:28;;;;;;;0.00;0.00;;;;;;;15.58;61.79;102654.13;5490077;26;19998;-85
2024/04/13 03:53:54;;;;;;;0.10;0.10;;;;;;;15.57;61.68;102662.16;5482865;26;19998;-85
2024/04/13 03:56:20;;;;;;;0.20;0.20;;;;;;;15.57;61.73;102656.81;5486360;26;20437;-85
2024/04/13 03:58:47;;;;;;;0.00;0.00;;;;;;;15.54;62.58;102657.72;5485572;26;20005;-85
2024/04/13 04:01:13;;;;;;;0.00;0.00;;;;;;;15.54;62.29;102655.06;5486841;26;20006;-85
2024/04/13 04:03:39;;;;;;;0.10;0.10;;;;;;;15.54;62.14;102652.38;5479864;26;20010;-85
2024/04/13 04:06:05;;;;;;;0.17;0.17;;;;;;;15.52;63.06;102660.41;5489580;26;20013;-85
2024/04/13 04:08:35;;;;;;;0.13;0.13;;;;;;;15.53;62.93;102651.50;5488875;26;20765;-85
2024/04/13 04:11:01;;;;;;;0.10;0.10;;;;;;;15.48;62.72;102650.66;5493821;26;20073;-85
2024/04/13 04:13:27;;;;;;;0.00;0.00;;;;;;;15.46;62.33;102660.47;5483248;26;19998;-85
2024/04/13 04:15:54;;;;;;;0.52;0.52;;;;;;;15.47;62.71;102650.69;5483753;26;20073;-85
2024/04/13 04:18:20;;;;;;;0.00;0.00;;;;;;;15.44;62.23;102654.28;5482184;26;20039;-85
2024/04/13 04:20:47;;;;;;;0.15;0.15;;;;;;;15.43;62.28;102652.50;5490510;26;20325;-85
2024/04/13 04:23:13;;;;;;;0.00;0.00;;;;;;;15.41;62.62;102646.28;5508305;26;19982;-84
2024/04/13 04:25:40;;;;;;;0.03;0.03;;;;;;;15.42;62.77;102644.50;5511952;26;20012;-85
2024/04/13 04:28:06;;;;;;;0.15;0.15;;;;;;;15.37;63.42;102644.56;5490495;26;19998;-85
2024/04/13 04:30:32;;;;;;;0.03;0.03;;;;;;;15.37;62.61;102649.91;5492532;26;20033;-86
2024/04/13 04:32:58;;;;;;;0.10;0.10;;;;;;;15.33;63.29;102641.03;5488562;26;20009;-85
2024/04/13 04:35:25;;;;;;;0.10;0.10;;;;;;;15.33;62.81;102642.84;5488697;26;20081;-85
2024/04/13 04:37:51;;;;;;;0.10;0.10;;;;;;;15.31;62.94;102639.28;5490288;26;20030;-86
2024/04/13 04:40:17;;;;;;;0.10;0.10;;;;;;;15.28;63.04;102636.66;5480906;26;19994;-85
2024/04/13 04:42:45;;;;;;;0.10;0.10;;;;;;;15.26;63.29;102641.13;5484682;26;20002;-86
2024/04/13 04:45:11;;;;;;;0.20;0.20;;;;;;;15.25;63.61;102639.34;5487977;26;20469;-85
2024/04/13 04:47:38;;;;;;;0.10;0.10;;;;;;;15.23;63.58;102638.47;5482830;26;20013;-86
2024/04/13 04:50:05;;;;;;;0.00;0.00;;;;;;;15.20;64.10;102639.41;5489651;26;20010;-86
2024/04/13 04:52:31;;;;;;;0.00;0.00;;;;;;;15.18;64.25;102631.41;5483523;26;20156;-85
2024/04/13 04:55:01;;;;;;;0.15;0.15;;;;;;;15.16;63.64;102635.88;5492939;26;20456;-85
2024/04/13 04:57:27;;;;;;;0.10;0.10;;;;;;;15.16;64.12;102635.88;5486062;26;20034;-86
2024/04/13 04:59:53;;;;;;;0.00;0.00;;;;;;;15.16;63.88;102633.19;5482039;26;20075;-86
2024/04/13 05:02:19;;;;;;;0.10;0.10;;;;;;;15.17;63.65;102626.97;5488335;26;20014;-86
2024/04/13 05:04:45;;;;;;;0.00;0.00;;;;;;;15.16;63.72;102630.53;5487535;26;20055;-86
2024/04/13 05:07:11;;;;;;;0.10;0.10;;;;;;;15.16;64.60;102629.66;5487084;26;19998;-86
2024/04/13 05:09:37;;;;;;;0.20;0.20;;;;;;;15.16;64.52;102633.19;5474490;26;20002;-85
2024/04/13 05:12:04;;;;;;;0.10;0.10;;;;;;;15.18;64.62;102633.22;5482838;26;20009;-86
2024/04/13 05:14:31;;;;;;;0.05;0.05;;;;;;;15.20;64.40;102629.63;5487933;26;20456;-85
2024/04/13 05:16:57;;;;;;;0.00;0.00;;;;;;;15.22;63.77;102626.06;5484870;26;20076;-85
2024/04/13 05:19:23;;;;;;;0.00;0.00;;;;;;;15.22;64.13;102624.25;5488776;26;20001;-86
2024/04/13 05:21:49;;;;;;;0.10;0.10;;;;;;;15.27;64.23;102632.22;5475556;26;20008;-85
2024/04/13 05:24:16;;;;;;;0.10;0.10;;;;;;;15.30;63.67;102626.84;5486687;26;20006;-86
2024/04/13 05:26:43;;;;;;;0.00;0.00;;;;;;;15.33;63.72;102629.47;5472838;26;20010;-85
2024/04/13 05:29:10;;;;;;;0.10;0.10;;;;;;;15.35;64.31;102625.00;5487527;26;20093;-85
2024/04/13 05:31:39;;;;;;;0.00;0.00;;;;;;;15.40;64.46;102624.94;5487374;26;19998;-85
2024/04/13 05:34:05;;;;;;;0.10;0.10;;;;;;;15.38;64.62;102616.97;5474514;26;20002;-86
2024/04/13 05:36:31;;;;;;;0.40;0.40;;;;;;;15.42;64.08;102623.16;5483262;26;19990;-85
2024/04/13 05:38:58;;;;;;;0.13;0.13;;;;;;;15.48;64.09;102621.28;5490533;26;20002;-84
2024/04/13 05:41:24;;;;;;;0.10;0.10;;;;;;;15.50;64.65;102618.56;5508111;26;20002;-85
2024/04/13 05:43:50;;;;;;;0.05;0.05;;;;;;;15.56;64.10;102620.31;5495889;26;19990;-86
2024/04/13 05:46:19;;;;;;;0.10;0.10;;;;;;;15.58;64.72;102623.84;5484979;26;20005;-85
2024/04/13 05:48:46;;;;;;;0.20;0.20;;;;;;;15.62;64.42;102628.25;5485348;26;20009;-86
2024/04/13 05:51:17;;;;;;;1.08;0.90;;;;;;;15.72;63.41;102640.56;5485444;26;19994;-86
2024/04/13 05:53:43;;;;;;;0.10;0.10;;;;;;;15.71;64.27;102633.47;5473861;26;20005;-83
2024/04/13 05:56:09;;;;;;;0.10;0.10;;;;;;;15.72;64.35;102635.22;5479095;26;19998;-86
2024/04/13 05:58:36;;;;;;;0.10;0.10;;;;;;;15.80;64.08;102637.78;5487580;26;20009;-85
2024/04/13 06:01:02;;;;;;;0.10;0.10;;;;;;;15.85;63.83;102631.53;5483024;26;20006;-85
2024/04/13 06:03:28;;;;;;;0.50;0.50;;;;;;;15.92;64.23;102631.44;5487049;26;20013;-85
2024/04/13 06:05:55;;;;;;;0.00;0.00;;;;;;;15.99;63.91;102625.13;5486848;26;19994;-84
2024/04/13 06:08:21;;;;;;;0.10;0.10;;;;;;;16.01;64.11;102625.97;5477972;26;20002;-85
2024/04/13 06:10:47;;;;;;;0.10;0.10;;;;;;;16.06;63.96;102625.91;5484109;26;20009;-85
2024/04/13 06:13:16;;;;;;;0.10;0.10;;;;;;;16.11;63.42;102626.72;5480764;26;20031;-85
2024/04/13 06:15:42;;;;;;;0.17;0.17;;;;;;;16.16;63.79;102623.06;5477426;26;20002;-86
2024/04/13 06:18:10;;;;;;;0.10;0.10;;;;;;;16.21;63.94;102620.31;5476356;26;20055;-85
2024/04/13 06:20:37;;;;;;;0.28;0.28;;;;;;;16.24;63.74;102628.31;5455606;26;20008;-85
2024/04/13 06:23:07;;;;;;;0.40;0.40;;;;;;;16.31;63.47;102629.09;5480189;26;20051;-85
2024/04/13 06:25:33;;;;;;;0.10;0.10;;;;;;;16.35;63.68;102614.78;5483209;26;19998;-86
2024/04/13 06:27:59;;;;;;;0.40;0.40;;;;;;;16.43;63.30;102622.66;5476386;26;19999;-85
2024/04/13 06:30:26;;;;;;;0.30;0.30;;;;;;;16.48;63.44;102615.44;5482977;26;19998;-86
2024/04/13 06:32:53;;;;;;;0.10;0.10;;;;;;;16.54;62.77;102610.00;5481985;26;20203;-85
2024/04/13 06:35:20;;;;;;;0.10;0.10;;;;;;;16.55;63.64;102616.22;5485409;26;20005;-85
2024/04/13 06:37:46;;;;;;;0.43;0.43;;;;;;;16.59;63.69;102615.28;5481756;26;20074;-86
2024/04/13 06:40:12;;;;;;;0.10;0.10;;;;;;;16.64;63.29;102616.06;5458178;26;20152;-85
2024/04/13 06:42:38;;;;;;;0.10;0.10;;;;;;;16.69;63.52;102614.19;5493557;26;20342;-86
2024/04/13 06:45:05;;;;;;;0.10;0.10;;;;;;;16.77;63.78;102622.09;5494077;26;20015;-87
2024/04/13 06:47:45;;;;;;;0.10;0.10;;;;;;;16.92;63.10;102615.59;5507358;26;20001;-87
2024/04/13 06:50:17;;;;;;;0.00;0.00;;;;;;;16.94;63.25;102613.78;5497048;26;19986;-87
2024/04/13 06:52:43;;;;;;;0.08;0.08;;;;;;;16.97;62.91;102616.41;5493192;26;20003;-87
2024/04/13 06:55:33;;;;;;;0.70;0.70;;;;;;;17.07;63.11;102606.41;5508021;26;19994;-86
2024/04/13 06:58:00;;;;;;;1.45;0.40;;;;;;;17.10;62.98;102614.41;5479421;25;19990;-84
2024/04/13 07:00:26;;;;;;;0.10;0.10;;;;;;;17.17;62.77;102608.00;5502168;25;20006;-83
2024/04/13 07:02:52;;;;;;;0.10;0.10;;;;;;;17.25;62.71;102611.41;5507565;26;20006;-84
2024/04/13 07:05:18;;;;;;;0.10;0.10;;;;;;;17.33;62.56;102597.84;5503197;26;19995;-83
2024/04/13 07:07:44;;;;;;;0.17;0.17;;;;;;;17.42;62.55;102592.31;5507416;26;19998;-84
2024/04/13 07:10:13;;;;;;;0.10;0.10;;;;;;;17.45;62.84;102599.41;5505191;26;20034;-88
2024/04/13 07:12:40;;;;;;;0.10;0.10;;;;;;;17.61;62.58;102591.94;5507935;26;20027;-85
2024/04/13 07:15:07;;;;;;;0.08;0.08;;;;;;;17.67;62.44;102602.53;5507748;26;20025;-86
2024/04/13 07:17:36;;;;;;;0.00;0.00;;;;;;;17.81;61.99;102590.59;5507432;26;20052;-85
2024/04/13 07:20:13;;;;;;;0.10;0.10;;;;;;;17.92;61.73;102594.81;5495294;26;20056;-84
2024/04/13 07:22:48;;;;;;;0.10;0.10;;;;;;;17.86;62.20;102600.31;5499394;26;20005;-84
2024/04/13 07:25:17;;;;;;;0.00;0.00;;;;;;;17.95;61.81;102588.50;5499403;26;20008;-85
2024/04/13 07:27:43;;;;;;;1.13;1.02;;;;;;;17.95;61.84;102593.88;5483381;26;19990;-87
2024/04/13 07:30:09;;;;;;;0.10;0.10;;;;;;;18.01;61.72;102593.75;5490590;26;19994;-87
2024/04/13 07:32:44;;;;;;;0.03;0.03;;;;;;;18.10;61.54;102588.13;5489018;26;19990;-87
2024/04/13 07:35:10;;;;;;;0.10;0.10;;;;;;;18.16;61.50;102580.91;5473967;26;20333;-87
2024/04/13 07:37:44;;;;;;;0.10;0.10;;;;;;;18.25;60.98;102572.59;5485190;26;19998;-87
2024/04/13 07:40:10;;;;;;;0.30;0.30;;;;;;;18.35;61.14;102565.22;5492560;26;20006;-86
2024/04/13 07:42:39;;;;;;;0.30;0.30;;;;;;;18.43;61.15;102568.59;5490156;26;20002;-86
2024/04/13 07:45:07;;;;;;;0.22;0.22;;;;;;;18.52;60.98;102562.97;5477387;26;20024;-87
2024/04/13 07:47:34;;;;;;;0.20;0.20;;;;;;;18.60;60.42;102560.09;5489610;26;20006;-88
2024/04/13 07:50:00;;;;;;;0.10;0.10;;;;;;;18.65;60.17;102560.84;5484887;26;20738;-87
2024/04/13 07:52:26;;;;;;;0.10;0.10;;;;;;;18.64;60.31;102577.00;5487041;26;20066;-87
2024/04/13 07:54:57;;;;;;;0.10;0.10;;;;;;;18.65;59.45;102574.25;5489378;26;20468;-87
2024/04/13 07:57:26;;;;;;;0.13;0.13;;;;;;;18.75;60.06;102573.13;5481983;26;20329;-87
2024/04/13 07:59:55;;;;;;;0.10;0.10;;;;;;;18.68;59.36;102574.19;5489311;26;20022;-88
2024/04/13 08:02:21;;;;;;;0.30;0.30;;;;;;;18.71;58.99;102568.72;5481869;26;19998;-87
2024/04/13 08:04:47;;;;;;;0.00;0.00;;;;;;;18.86;59.45;102563.88;5487166;26;20326;-87
2024/04/13 08:07:14;;;;;;;0.00;0.00;;;;;;;18.92;59.17;102555.69;5482118;26;20335;-86
2024/04/13 08:09:41;;;;;;;1.88;0.80;;;;;;;19.00;58.44;102553.66;5486067;26;20009;-87
2024/04/13 08:12:09;;;;;;;0.10;0.10;;;;;;;19.03;58.25;102553.56;5493059;26;20008;-86
2024/04/13 08:14:37;;;;;;;0.17;0.17;;;;;;;19.02;57.79;102551.81;5514327;25;20014;-87
2024/04/13 08:17:07;;;;;;;0.10;0.10;;;;;;;19.12;58.29;102557.81;5514725;25;20008;-87
2024/04/13 08:19:33;;;;;;;0.10;0.10;;;;;;;19.20;58.00;102555.78;5503500;26;19998;-87
2024/04/13 08:21:59;;;;;;;0.63;0.63;;;;;;;19.28;58.16;102546.59;5496534;26;20013;-87
2024/04/13 08:24:27;;;;;;;0.10;0.10;;;;;;;19.40;57.58;102548.91;5493383;26;19999;-88
2024/04/13 08:26:55;;;;;;;0.30;0.30;;;;;;;19.45;57.45;102538.03;5484266;26;20411;-88
2024/04/13 08:29:21;;;;;;;0.08;0.08;;;;;;;19.50;57.10;102531.59;5489324;26;20347;-87
2024/04/13 08:31:47;;;;;;;1.10;0.50;;;;;;;19.59;56.96;102541.19;5476951;26;20425;-87
2024/04/13 08:34:17;;;;;;;0.10;0.10;;;;;;;19.72;57.28;102534.47;5483028;26;20003;-89
2024/04/13 08:36:44;;;;;;;0.10;0.10;;;;;;;19.78;57.18;102524.47;5489922;26;19991;-85
2024/04/13 08:39:12;;;;;;;0.10;0.10;;;;;;;19.76;56.38;102518.25;5481030;26;19994;-88
2024/04/13 08:44:23;;;;;;;0.20;0.20;;;;;;;19.81;55.83;102513.63;5433237;26;22068;-86
2024/04/13 08:46:53;;;;;;;0.10;0.10;;;;;;;19.88;56.07;102508.00;5422938;26;20002;-87
2024/04/13 08:49:24;;;;;;;0.10;0.10;;;;;;;20.02;56.05;102512.94;5436967;26;20367;-88
2024/04/13 08:51:54;;;;;;;0.45;0.45;;;;;;;20.14;56.30;102511.66;5435971;26;20035;-87
2024/04/13 08:54:30;;;;;;;0.52;0.52;;;;;;;20.21;55.87;102509.63;5429226;26;20000;-86
2024/04/13 08:57:19;;;;;;;0.10;0.10;;;;;;;20.29;55.19;102504.88;5434818;26;19999;-85
2024/04/13 08:59:49;;;;;;;0.10;0.10;;;;;;;20.40;55.32;102493.72;5420347;26;20014;-86
2024/04/13 09:02:19;;;;;;;0.10;0.10;;;;;;;20.48;55.35;102505.09;5441001;26;20011;-85
2024/04/13 09:04:45;;;;;;;0.10;0.10;;;;;;;20.56;54.56;102490.47;5432983;26;20641;-86
2024/04/13 09:07:12;;;;;;;0.10;0.10;;;;;;;20.54;54.64;102490.53;5426950;26;20000;-86
2024/04/13 09:09:39;;;;;;;0.15;0.15;;;;;;;20.62;54.63;102488.47;5447944;26;20016;-87
2024/04/13 09:12:06;;;;;;;0.30;0.30;;;;;;;20.76;54.62;102481.69;5448771;26;20004;-89
2024/04/13 09:14:32;;;;;;;0.10;0.10;;;;;;;20.88;54.88;102475.84;5443688;26;19983;-89
2024/04/13 09:17:00;;;;;;;0.25;0.25;;;;;;;21.04;54.38;102469.91;5446464;26;19995;-86
2024/04/13 09:19:27;;;;;;;0.35;0.35;;;;;;;21.12;53.44;102468.66;5421734;26;20385;-86
2024/04/13 09:21:57;;;;;;;0.10;0.10;;;;;;;21.21;53.43;102467.44;5431466;26;20050;-88
2024/04/13 09:24:24;;;;;;;0.00;0.00;;;;;;;21.21;52.66;102453.94;5432485;26;20466;-89
2024/04/13 09:26:51;;;;;;;0.68;0.68;;;;;;;21.24;52.82;102458.34;5420955;26;20406;-88
2024/04/13 09:29:39;;;;;;;0.10;0.10;;;;;;;21.43;53.23;102455.78;5422964;26;20045;-87
2024/04/13 09:32:07;;;;;;;0.10;0.10;;;;;;;21.42;52.71;102459.41;5421644;26;20490;-87
2024/04/13 09:34:35;;;;;;;0.10;0.10;;;;;;;21.56;53.08;102459.78;5418511;26;19996;-87
2024/04/13 09:37:08;;;;;;;0.20;0.20;;;;;;;21.65;52.68;102454.00;5434042;26;20003;-86
2024/04/13 09:39:37;;;;;;;0.10;0.10;;;;;;;21.71;52.87;102443.88;5422218;26;19996;-84
2024/04/13 09:42:08;;;;;;;0.20;0.20;;;;;;;21.81;51.91;102448.84;5435729;26;20000;-85
2024/04/13 09:44:34;;;;;;;0.35;0.35;;;;;;;21.90;52.78;102444.88;5433978;26;20104;-84
2024/04/13 09:47:00;;;;;;;0.10;0.10;;;;;;;21.83;53.05;102442.50;5425912;26;20003;-85
2024/04/13 09:49:27;;;;;;;0.10;0.10;;;;;;;21.89;52.86;102453.91;5421990;26;20014;-84
2024/04/13 09:51:54;;;;;;;0.13;0.13;;;;;;;21.89;52.84;102447.66;5424705;26;20000;-85
2024/04/13 09:54:26;;;;;;;0.20;0.20;;;;;;;21.90;52.56;102452.09;5423613;26;20003;-86
2024/04/13 09:56:53;;;;;;;0.10;0.10;;;;;;;21.94;52.65;102446.53;5411283;26;20347;-85
2024/04/13 09:59:21;;;;;;;0.35;0.35;;;;;;;22.02;52.72;102448.00;5418324;26;20007;-84
2024/04/13 10:01:48;;;;;;;0.98;0.55;;;;;;;22.07;52.82;102441.47;5393117;26;19992;-84
2024/04/13 10:04:15;;;;;;;0.40;0.40;;;;;;;22.14;53.05;102428.56;5416207;26;20000;-85
2024/04/13 10:06:43;;;;;;;0.10;0.10;;;;;;;22.24;53.09;102432.63;5426933;26;20025;-85
2024/04/13 10:09:16;;;;;;;0.00;0.00;;;;;;;22.41;53.28;102422.94;5422536;26;20094;-85
2024/04/13 10:11:46;;;;;;;0.30;0.30;;;;;;;22.44;52.58;102422.78;5428725;26;20018;-83
2024/04/13 10:14:14;;;;;;;0.05;0.05;;;;;;;22.50;52.94;102417.09;5439328;26;19992;-88
2024/04/13 10:16:42;;;;;;;1.08;1.02;;;;;;;22.59;53.00;102416.69;5432698;26;20003;-84
2024/04/13 10:19:14;;;;;;;0.32;0.32;;;;;;;22.71;52.84;102414.38;5421459;26;19992;-83
2024/04/13 10:21:40;;;;;;;0.10;0.10;;;;;;;22.81;52.84;102415.69;5417261;26;20011;-84
2024/04/13 10:24:15;;;;;;;0.10;0.10;;;;;;;22.93;53.03;102404.31;5419580;26;20007;-82
2024/04/13 10:26:44;;;;;;;0.10;0.10;;;;;;;22.98;52.30;102405.91;5409318;26;19997;-87
2024/04/13 10:29:11;;;;;;;1.00;1.00;;;;;;;23.04;52.51;102400.19;5407487;26;20006;-87
2024/04/13 10:31:37;;;;;;;0.10;0.10;;;;;;;23.13;52.69;102383.53;5402696;26;19999;-87
2024/04/13 10:34:03;;;;;;;0.13;0.13;;;;;;;23.22;52.30;102377.72;5417438;26;20003;-85
2024/04/13 10:36:31;;;;;;;0.10;0.10;;;;;;;23.31;52.67;102389.03;5418420;26;20015;-86
2024/04/13 10:38:59;;;;;;;0.20;0.20;;;;;;;23.35;52.30;102383.41;5404118;26;20076;-86
2024/04/13 10:41:34;;;;;;;0.43;0.43;;;;;;;23.43;51.84;102374.91;5413275;26;20004;-85
2024/04/13 10:44:02;;;;;;;0.20;0.20;;;;;;;23.39;52.01;102386.81;5409207;26;20344;-85
2024/04/13 10:46:28;;;;;;;0.10;0.10;;;;;;;23.43;51.98;102385.72;5400983;26;20516;-85
2024/04/13 10:48:55;;;;;;;0.00;0.00;;;;;;;23.48;51.52;102380.94;5409009;26;20000;-86
2024/04/13 10:51:22;;;;;;;0.30;0.30;;;;;;;23.54;51.23;102375.22;5406821;26;20051;-85
2024/04/13 10:53:49;;;;;;;0.10;0.10;;;;;;;23.61;51.50;102377.63;5409234;26;19999;-84
2024/04/13 10:56:16;;;;;;;0.25;0.25;;;;;;;23.67;51.03;102369.19;5420307;26;20013;-85
2024/04/13 10:58:42;;;;;;;0.10;0.10;;;;;;;23.78;51.23;102358.69;5397524;26;20394;-84
2024/04/13 11:01:08;;;;;;;0.10;0.10;;;;;;;23.84;50.89;102363.78;5410175;26;19996;-84
2024/04/13 11:03:34;;;;;;;0.00;0.00;;;;;;;23.89;50.75;102359.00;5400558;26;20018;-84
2024/04/13 11:06:01;;;;;;;0.70;0.55;;;;;;;24.00;50.47;102357.59;5412781;26;20000;-84
2024/04/13 11:08:28;;;;;;;0.57;0.57;;;;;;;24.05;50.19;102350.09;5412466;26;20011;-84
2024/04/13 11:10:56;;;;;;;0.30;0.30;;;;;;;24.14;50.33;102349.59;5410005;26;20007;-84
2024/04/13 11:13:23;;;;;;;0.43;0.43;;;;;;;24.18;49.83;102334.06;5414460;26;20055;-84
2024/04/13 11:15:51;;;;;;;0.85;0.85;;;;;;;24.20;49.46;102330.31;5429837;26;20034;-82
2024/04/13 11:18:17;;;;;;;0.10;0.10;;;;;;;24.25;49.42;102323.78;5432933;26;19999;-87
2024/04/13 11:20:49;;;;;;;0.50;0.38;;;;;;;24.37;49.55;102312.25;5420025;26;20015;-84
2024/04/13 11:23:16;;;;;;;3.22;1.92;;;;;;;24.47;49.55;102318.91;5407637;26;20000;-83
2024/04/13 11:25:42;;;;;;;0.10;0.10;;;;;;;24.55;48.98;102310.38;5417856;26;20076;-84
2024/04/13 11:28:09;;;;;;;0.20;0.20;;;;;;;24.62;48.80;102308.19;5410276;26;20019;-82